Time;durP1;ratioP1;P1;durP2;ratioP2;P2;SDS_P1;SDS_P2;PMS_P1;PMS_P2;Temp;Humidity;BMP_temperature;BMP_pressure;BME280_temperature;BME280_humidity;BME280_pressure;Samples;Min_cycle;Max_cycle;Signal;HPM_P1;HPM_P2
2021/11/12 00:03:00;;;;;;;50.55;27.00;;;;;;;-2.61;90.66;97917.69;5008837;28;20048;-55
2021/11/12 00:13:43;;;;;;;50.03;25.38;;;;;;;-2.43;88.77;97911.53;5025012;28;20053;-55
2021/11/12 00:16:10;;;;;;;43.88;24.40;;;;;;;-2.52;88.36;97908.81;5016780;28;20592;-54
2021/11/12 00:18:38;;;;;;;42.95;22.77;;;;;;;-2.29;89.67;97910.13;5024660;28;20550;-53
2021/11/12 00:21:06;;;;;;;48.33;23.90;;;;;;;-2.27;89.09;97906.34;5019726;28;20065;-54
2021/11/12 00:23:35;;;;;;;48.08;24.85;;;;;;;-2.26;90.07;97907.16;5013356;28;20547;-57
2021/11/12 00:26:02;;;;;;;49.63;27.23;;;;;;;-2.12;90.09;97905.75;5012273;28;20038;-55
2021/11/12 00:28:34;;;;;;;50.90;26.73;;;;;;;-1.97;89.51;97901.53;5027327;28;20049;-56
2021/11/12 00:36:43;;;;;;;39.38;22.20;;;;;;;-1.76;87.71;97899.44;5009006;28;20038;-57
2021/11/12 00:39:16;;;;;;;40.90;21.27;;;;;;;-1.97;88.20;97904.19;5018314;28;20057;-57
2021/11/12 00:41:49;;;;;;;40.20;21.65;;;;;;;-2.14;87.92;97907.72;5026268;28;20045;-57
2021/11/12 00:44:41;;;;;;;48.10;22.63;;;;;;;-2.19;88.23;97907.34;5026871;28;20056;-57
2021/11/12 00:47:07;;;;;;;37.28;22.50;;;;;;;-2.43;88.57;97914.19;5022879;28;20056;-56
2021/11/12 00:49:38;;;;;;;37.92;21.05;;;;;;;-2.41;89.82;97907.72;5026725;28;20049;-55
2021/11/12 00:52:11;;;;;;;38.28;20.35;;;;;;;-2.12;88.33;97906.59;5024132;28;20095;-56
2021/11/12 00:54:38;;;;;;;37.05;20.80;;;;;;;-2.30;88.23;97898.69;5024163;28;20052;-55
2021/11/12 00:57:05;;;;;;;39.22;21.40;;;;;;;-2.43;89.05;97906.22;5026124;28;20038;-54
2021/11/12 00:59:31;;;;;;;38.47;23.38;;;;;;;-2.44;89.04;97902.72;5026950;28;20053;-50
2021/11/12 01:01:59;;;;;;;35.83;21.50;;;;;;;-2.45;89.38;97903.72;5022079;28;20038;-56
2021/11/12 01:04:26;;;;;;;39.30;20.88;;;;;;;-2.44;88.83;97904.56;5015284;28;20525;-55
2021/11/12 01:06:52;;;;;;;34.60;20.35;;;;;;;-2.44;89.46;97897.41;5022197;28;20034;-56
2021/11/12 01:09:22;;;;;;;39.85;22.40;;;;;;;-2.53;88.10;97904.50;5026538;28;20046;-57
2021/11/12 01:11:50;;;;;;;38.00;21.08;;;;;;;-2.55;89.16;97906.47;5022354;28;20045;-56
2021/11/12 01:14:22;;;;;;;35.60;20.23;;;;;;;-2.57;89.02;97905.81;5007923;28;20517;-56
2021/11/12 01:16:51;;;;;;;37.03;20.05;;;;;;;-2.63;88.82;97909.06;5017831;28;20669;-56
2021/11/12 01:19:18;;;;;;;44.28;24.35;;;;;;;-2.88;90.23;97895.59;5026901;28;20072;-56
2021/11/12 01:21:45;;;;;;;42.35;24.73;;;;;;;-2.78;89.44;97892.88;5017819;28;20052;-56
2021/11/12 01:24:12;;;;;;;39.03;22.27;;;;;;;-2.81;89.67;97880.75;5025009;28;20048;-57
2021/11/12 01:26:39;;;;;;;42.38;22.95;;;;;;;-2.87;89.27;97892.78;5015439;28;20256;-56
2021/11/12 01:29:06;;;;;;;39.08;21.38;;;;;;;-3.02;89.57;97891.69;5026029;28;20046;-57
2021/11/12 01:31:33;;;;;;;39.50;23.00;;;;;;;-2.98;89.63;97889.56;5011966;28;20124;-56
2021/11/12 01:34:09;;;;;;;38.63;21.67;;;;;;;-2.97;89.98;97885.91;5009643;28;20054;-57
2021/11/12 01:36:42;;;;;;;41.90;22.60;;;;;;;-3.03;90.11;97882.06;5006595;28;20050;-56
2021/11/12 01:39:12;;;;;;;42.70;22.80;;;;;;;-3.16;90.41;97877.97;5023724;28;20049;-57
2021/11/12 01:41:45;;;;;;;41.67;21.55;;;;;;;-3.01;89.92;97878.28;5016446;28;20056;-57
2021/11/12 01:44:12;;;;;;;42.50;23.42;;;;;;;-2.98;90.24;97876.31;5008312;28;20065;-57
2021/11/12 01:46:58;;;;;;;37.60;21.55;;;;;;;-2.95;89.70;97873.38;5007875;28;20045;-56
2021/11/12 01:59:44;;;;;;;34.97;20.65;;;;;;;-3.33;90.33;97869.06;5018740;28;20052;-56
2021/11/12 02:02:10;;;;;;;37.72;20.85;;;;;;;-3.23;90.38;97871.63;5012594;28;20684;-56
2021/11/12 02:04:37;;;;;;;40.58;21.05;;;;;;;-3.18;90.15;97873.81;5006271;28;20042;-51
2021/11/12 02:07:05;;;;;;;42.67;22.13;;;;;;;-3.09;90.60;97875.56;5019443;28;20091;-54
2021/11/12 02:09:32;;;;;;;42.53;23.65;;;;;;;-3.10;89.21;97865.13;5024530;28;20712;-56
2021/11/12 02:12:19;;;;;;;38.92;21.73;;;;;;;-3.15;88.97;97866.41;5006618;28;20057;-53
2021/11/12 02:14:47;;;;;;;34.83;20.35;;;;;;;-3.37;89.36;97854.44;5012934;28;20785;-51
2021/11/12 02:17:17;;;;;;;30.55;18.92;;;;;;;-3.43;89.33;97847.13;5017651;28;20038;-50
2021/11/12 02:19:53;;;;;;;33.65;19.38;;;;;;;-3.45;89.89;97851.72;5007050;28;20643;-55
2021/11/12 02:22:22;;;;;;;33.72;19.90;;;;;;;-3.58;89.98;97846.81;5014772;28;20057;-56
2021/11/12 02:24:54;;;;;;;33.88;19.02;;;;;;;-3.55;90.53;97843.84;5025149;28;20107;-53
2021/11/12 02:27:22;;;;;;;32.88;18.92;;;;;;;-3.44;90.39;97835.69;5024796;28;20045;-55
2021/11/12 02:29:53;;;;;;;42.20;22.50;;;;;;;-3.26;90.87;97832.19;5011289;28;20045;-56
2021/11/12 02:32:29;;;;;;;39.40;23.10;;;;;;;-3.08;88.62;97834.00;5018099;28;20128;-56
2021/11/12 02:34:59;;;;;;;35.22;19.73;;;;;;;-3.34;88.19;97834.78;5011884;28;20607;-55
2021/11/12 02:37:28;;;;;;;37.55;19.45;;;;;;;-3.38;89.11;97828.97;5014994;28;20516;-54
2021/11/12 02:39:55;;;;;;;31.13;18.85;;;;;;;-3.37;89.21;97830.63;5019500;28;20052;-56
2021/11/12 02:42:23;;;;;;;28.90;17.35;;;;;;;-3.44;88.96;97827.75;5007789;28;20052;-56
2021/11/12 02:44:50;;;;;;;30.40;18.52;;;;;;;-3.41;89.60;97830.09;5006802;28;20502;-54
2021/11/12 02:47:20;;;;;;;34.35;20.08;;;;;;;-3.29;88.85;97822.75;5023822;28;20095;-55
2021/11/12 02:49:47;;;;;;;31.50;17.88;;;;;;;-3.33;88.67;97817.88;5025169;28;20049;-56
2021/11/12 02:52:19;;;;;;;37.33;21.15;;;;;;;-3.23;89.22;97815.16;5018775;28;20644;-56
2021/11/12 02:54:46;;;;;;;;;;;;;;;-3.41;88.99;97816.84;5023693;28;20041;-56
2021/11/12 02:57:13;;;;;;;36.58;17.92;;;;;;;-3.20;88.43;97815.72;5024502;28;19943;-54
2021/11/12 02:59:40;;;;;;;32.55;19.33;;;;;;;-3.17;88.19;97811.91;5023993;28;20111;-55
2021/11/12 03:02:08;;;;;;;34.45;20.23;;;;;;;-3.18;88.38;97820.84;5024046;28;20115;-56
2021/11/12 03:04:36;;;;;;;34.92;19.15;;;;;;;-3.40;88.58;97813.22;5017025;28;20037;-56
2021/11/12 03:07:03;;;;;;;36.17;19.85;;;;;;;-3.53;88.93;97815.41;5015950;28;20050;-57
2021/11/12 03:09:32;;;;;;;36.00;19.38;;;;;;;-3.57;89.51;97814.88;5014985;28;20092;-58
2021/11/12 03:12:01;;;;;;;38.50;21.02;;;;;;;-3.49;89.67;97814.13;5018122;28;20064;-56
2021/11/12 03:14:29;;;;;;;34.45;19.23;;;;;;;-3.35;89.85;97810.13;5024861;28;20202;-56
2021/11/12 03:16:56;;;;;;;36.13;20.02;;;;;;;-2.97;88.93;97815.22;5012779;28;20040;-52
2021/11/12 03:19:26;;;;;;;36.15;20.48;;;;;;;-3.14;86.97;97816.91;5007655;28;20042;-53
2021/11/12 03:21:59;;;;;;;34.55;19.27;;;;;;;-3.26;88.22;97813.66;5024816;28;20068;-54
2021/11/12 03:24:33;;;;;;;36.08;20.42;;;;;;;-3.19;89.30;97813.88;5022556;28;20046;-56
2021/11/12 03:27:13;;;;;;;34.67;19.58;;;;;;;-3.26;87.15;97805.72;5024905;28;20073;-56
2021/11/12 04:00:19;;;;;;;33.90;19.02;;;;;;;-3.79;88.24;97809.03;5015078;28;20076;-56
2021/11/12 04:18:56;;;;;;;31.27;17.90;;;;;;;-3.63;87.00;97810.19;5023932;28;20779;-57
2021/11/12 05:46:23;;;;;;;29.95;18.63;;;;;;;-2.57;89.24;97804.19;5001197;28;20050;-56
2021/11/12 05:51:44;;;;;;;34.28;17.70;;;;;;;-2.45;89.65;97789.69;5014504;28;20064;-57
2021/11/12 05:56:57;;;;;;;33.65;18.73;;;;;;;-2.54;89.97;97796.75;5022916;28;20046;-53
2021/11/12 05:59:24;;;;;;;41.95;19.77;;;;;;;-2.56;89.96;97796.09;5012804;28;20048;-55
2021/11/12 06:01:52;;;;;;;38.90;18.27;;;;;;;-2.61;90.46;97790.44;5022019;28;20054;-55
2021/11/12 06:04:20;;;;;;;39.13;20.15;;;;;;;-2.70;90.93;97794.84;5008242;28;20112;-54
2021/11/12 06:06:47;;;;;;;42.95;21.90;;;;;;;-2.63;91.04;97792.41;5018174;28;20057;-54
2021/11/12 06:09:14;;;;;;;38.70;19.85;;;;;;;-2.43;91.24;97792.19;5026089;28;20045;-57
2021/11/12 06:11:42;;;;;;;44.15;20.85;;;;;;;-2.32;89.90;97791.88;5013921;28;20037;-57
2021/11/12 06:14:10;;;;;;;44.95;20.90;;;;;;;-2.31;89.24;97796.22;5025844;28;20052;-57
2021/11/12 06:16:37;;;;;;;42.28;20.38;;;;;;;-2.25;89.37;97786.81;5024456;28;20103;-57
2021/11/12 06:19:03;;;;;;;37.80;19.30;;;;;;;-2.36;90.36;97787.91;5010538;28;20049;-56
2021/11/12 06:21:30;;;;;;;42.08;21.45;;;;;;;-2.19;90.96;97787.97;5010960;28;20577;-58
2021/11/12 06:23:57;;;;;;;46.63;23.17;;;;;;;-1.87;89.70;97795.22;5015125;28;20044;-56
2021/11/12 06:26:24;;;;;;;48.10;21.85;;;;;;;-2.06;90.05;97791.03;5018234;28;20562;-57
2021/11/12 06:28:51;;;;;;;51.42;22.70;;;;;;;-2.02;91.23;97795.00;5018615;28;20052;-57
2021/11/12 06:31:21;;;;;;;53.22;23.67;;;;;;;-1.91;89.90;97791.22;5021245;28;20057;-56
2021/11/12 06:33:49;;;;;;;57.85;22.60;;;;;;;-2.32;90.86;97788.41;5019690;28;20108;-58
2021/11/12 06:36:17;;;;;;;67.75;23.88;;;;;;;-2.31;91.38;97782.13;5017614;28;20046;-57
2021/11/12 06:38:44;;;;;;;66.30;22.88;;;;;;;-2.34;92.01;97780.63;5017708;28;20052;-54
2021/11/12 06:41:16;;;;;;;76.82;25.83;;;;;;;-2.33;91.94;97776.97;5021049;28;20049;-56
2021/11/12 06:44:09;;;;;;;70.28;25.00;;;;;;;-2.33;92.78;97776.16;5013702;28;20124;-57
2021/11/12 06:49:28;;;;;;;69.22;22.08;;;;;;;-2.12;92.85;97789.84;5022682;28;20053;-57
2021/11/12 06:51:54;;;;;;;89.32;24.65;;;;;;;-2.11;92.36;97793.31;5018394;28;20050;-54
2021/11/12 06:54:21;;;;;;;53.63;21.52;;;;;;;-2.12;92.58;97789.00;5018220;28;20651;-53
2021/11/12 06:56:48;;;;;;;77.95;24.85;;;;;;;-2.16;93.05;97787.66;5020288;28;20500;-54
2021/11/12 06:59:15;;;;;;;74.10;25.42;;;;;;;-2.12;93.45;97781.88;5015531;28;20054;-55
2021/11/12 07:01:46;;;;;;;84.50;25.42;;;;;;;-2.12;92.70;97779.22;5021038;28;20052;-55
2021/11/12 07:04:15;;;;;;;82.22;25.98;;;;;;;-2.00;93.61;97782.41;5024895;28;20045;-56
2021/11/12 07:06:42;;;;;;;130.60;27.85;;;;;;;-2.10;93.08;97782.53;5019804;28;20045;-51
2021/11/12 07:09:09;;;;;;;88.68;29.08;;;;;;;-2.11;93.08;97777.38;5020933;28;20180;-58
2021/11/12 07:11:36;;;;;;;84.13;27.75;;;;;;;-2.09;93.13;97773.56;5024760;28;20042;-53
2021/11/12 07:14:06;;;;;;;78.60;28.15;;;;;;;-2.02;93.23;97771.13;5023957;28;20060;-54
2021/11/12 07:16:33;;;;;;;86.88;27.58;;;;;;;-1.96;93.23;97775.78;5026243;28;20041;-56
2021/11/12 07:19:01;;;;;;;85.00;30.35;;;;;;;-1.86;92.84;97780.09;5022523;28;20061;-57
2021/11/12 07:21:28;;;;;;;70.32;30.30;;;;;;;-1.83;92.89;97782.44;5021894;28;20051;-55
2021/11/12 07:24:00;;;;;;;56.90;25.63;;;;;;;-1.77;92.60;97781.78;5019662;28;20037;-57
2021/11/12 07:26:27;;;;;;;61.22;25.48;;;;;;;-1.80;92.24;97779.47;5025758;28;20049;-56
2021/11/12 07:28:53;;;;;;;57.88;27.20;;;;;;;-1.71;92.56;97780.31;5026527;28;20049;-57
2021/11/12 07:31:39;;;;;;;75.82;28.17;;;;;;;-1.57;92.25;97770.88;5025707;28;20045;-55
2021/11/12 07:34:06;;;;;;;71.78;30.63;;;;;;;-1.57;91.31;97770.88;5027020;28;20052;-56
2021/11/12 07:39:38;;;;;;;63.72;27.50;;;;;;;-1.63;90.96;97775.00;5002379;28;20069;-57
2021/11/12 07:47:02;;;;;;;62.92;27.13;;;;;;;-1.48;90.97;97769.03;5017386;28;20050;-61
2021/11/12 07:49:29;;;;;;;57.67;27.27;;;;;;;-1.60;91.44;97766.72;5015725;28;20048;-62
2021/11/12 07:51:56;;;;;;;66.32;28.38;;;;;;;-1.70;91.24;97756.25;5024355;28;20061;-63
2021/11/12 07:54:22;;;;;;;55.58;26.92;;;;;;;-1.62;92.07;97752.78;5020628;28;20048;-63
2021/11/12 07:56:50;;;;;;;66.03;30.80;;;;;;;-1.33;91.01;97753.31;5020853;28;20050;-63
2021/11/12 07:59:17;;;;;;;61.95;28.63;;;;;;;-1.27;90.64;97755.28;5021946;28;20046;-63
2021/11/12 08:01:43;;;;;;;61.80;29.58;;;;;;;-1.18;91.14;97748.97;5023452;28;20515;-61
2021/11/12 08:04:10;;;;;;;63.45;28.95;;;;;;;-1.21;90.35;97746.63;5025836;28;20118;-62
2021/11/12 08:06:37;;;;;;;58.03;27.10;;;;;;;-1.09;89.65;97743.66;5021018;28;20057;-65
2021/11/12 08:09:11;;;;;;;47.97;26.23;;;;;;;-1.07;89.09;97739.00;5025755;28;20050;-63
2021/11/12 08:14:11;;;;;;;49.45;25.52;;;;;;;-1.00;88.76;97737.31;5022222;28;20045;-64
2021/11/12 08:19:32;;;;;;;52.88;27.02;;;;;;;-0.89;90.19;97749.41;5024835;28;20049;-64
2021/11/12 08:35:14;;;;;;;34.92;20.30;;;;;;;-0.09;86.12;97736.19;5015419;28;20513;-58
2021/11/12 08:42:43;;;;;;;44.25;22.83;;;;;;;0.00;86.93;97734.31;5022172;28;20148;-57
2021/11/12 08:45:19;;;;;;;36.30;21.90;;;;;;;0.12;86.48;97730.22;5016857;28;20057;-57
2021/11/12 08:47:50;;;;;;;38.83;21.10;;;;;;;0.22;85.73;97729.19;5008598;28;20528;-57
2021/11/12 08:50:19;;;;;;;39.40;21.70;;;;;;;0.14;86.06;97715.94;5014396;28;20049;-55
2021/11/12 08:52:51;;;;;;;44.92;22.67;;;;;;;0.34;86.41;97717.09;5010229;28;20432;-54
2021/11/12 08:55:30;;;;;;;44.83;23.52;;;;;;;0.49;85.03;97716.34;5025357;28;20572;-57
2021/11/12 08:57:58;;;;;;;36.17;21.15;;;;;;;0.59;84.60;97719.59;5019255;28;20041;-56
2021/11/12 09:00:25;;;;;;;36.08;21.30;;;;;;;0.61;84.83;97724.75;5038421;28;20049;-57
2021/11/12 09:02:52;;;;;;;36.35;21.63;;;;;;;0.74;85.40;97727.63;5017892;28;20050;-54
2021/11/12 09:05:20;;;;;;;37.80;22.52;;;;;;;0.75;84.54;97729.31;5033062;28;20040;-54
2021/11/12 09:07:49;;;;;;;38.92;21.75;;;;;;;0.62;84.25;97726.38;5033261;28;20052;-56
2021/11/12 09:10:17;;;;;;;40.47;24.85;;;;;;;0.73;85.31;97727.78;5027439;28;20045;-57
2021/11/12 09:12:47;;;;;;;42.78;23.25;;;;;;;0.82;83.77;97729.41;5023744;28;20049;-51
2021/11/12 09:15:24;;;;;;;34.65;21.08;;;;;;;0.88;84.50;97720.66;5025397;28;20033;-56
2021/11/12 09:17:51;;;;;;;33.17;20.20;;;;;;;1.21;84.70;97727.53;5016894;28;20048;-56
2021/11/12 09:20:22;;;;;;;36.90;20.65;;;;;;;1.31;83.16;97729.91;5024072;28;20053;-54
2021/11/12 09:22:51;;;;;;;32.67;20.85;;;;;;;1.22;83.53;97723.03;5024375;28;20052;-56
2021/11/12 09:25:19;;;;;;;36.70;19.75;;;;;;;1.26;83.99;97732.31;5020202;28;20580;-56
2021/11/12 09:27:45;;;;;;;27.83;17.13;;;;;;;1.32;84.67;97723.56;5022075;28;20057;-56
2021/11/12 09:30:21;;;;;;;28.90;17.88;;;;;;;1.22;84.82;97723.84;5019196;28;20076;-55
2021/11/12 09:32:50;;;;;;;26.98;17.75;;;;;;;1.25;85.33;97725.34;5013964;28;20041;-57
2021/11/12 09:35:17;;;;;;;30.05;18.13;;;;;;;1.54;83.93;97724.50;5020788;28;20080;-56
2021/11/12 09:37:44;;;;;;;29.17;17.92;;;;;;;1.58;84.41;97716.94;5023315;28;20037;-57
2021/11/12 09:40:12;;;;;;;25.20;17.65;;;;;;;1.41;83.88;97727.78;5024541;28;20037;-57
2021/11/12 09:42:41;;;;;;;29.48;17.27;;;;;;;1.40;83.78;97722.66;5022572;28;20049;-56
2021/11/12 09:45:10;;;;;;;33.75;20.95;;;;;;;1.61;84.45;97729.06;5021847;28;20064;-57
2021/11/12 09:47:37;;;;;;;32.08;19.30;;;;;;;1.60;83.91;97728.25;5023735;28;20049;-57
2021/11/12 09:50:07;;;;;;;33.05;19.63;;;;;;;1.16;85.13;97719.25;5023846;28;20053;-56
2021/11/12 09:52:35;;;;;;;28.00;17.85;;;;;;;1.42;85.72;97708.13;5023616;28;20099;-57
2021/11/12 09:55:03;;;;;;;29.85;17.17;;;;;;;1.56;82.92;97703.75;5024078;28;20045;-55
2021/11/12 09:57:30;;;;;;;27.73;17.45;;;;;;;1.33;84.20;97701.22;5021396;28;20050;-57
2021/11/12 10:00:02;;;;;;;28.67;17.38;;;;;;;1.55;83.70;97703.97;5021253;28;20033;-56
2021/11/12 10:02:43;;;;;;;25.98;16.55;;;;;;;1.81;82.56;97700.78;5021238;28;20062;-57
2021/11/12 10:05:11;;;;;;;28.58;18.27;;;;;;;1.53;83.92;97714.00;5021088;28;20163;-57
2021/11/12 10:07:39;;;;;;;28.48;17.80;;;;;;;1.47;83.68;97704.06;5020623;28;20053;-57
2021/11/12 10:10:12;;;;;;;29.70;19.15;;;;;;;1.42;84.52;97710.78;5018944;28;20041;-56
2021/11/12 10:12:48;;;;;;;33.38;19.38;;;;;;;1.37;85.36;97704.34;5020626;28;20045;-56
2021/11/12 10:15:33;;;;;;;30.05;17.98;;;;;;;1.42;84.51;97689.44;5023203;28;20046;-55
2021/11/12 10:18:11;;;;;;;27.63;17.88;;;;;;;1.51;84.18;97681.34;5011857;28;20532;-56
2021/11/12 10:20:38;;;;;;;34.20;20.05;;;;;;;1.60;84.43;97679.38;5020072;28;20525;-56
2021/11/12 10:23:17;;;;;;;31.23;17.52;;;;;;;1.49;83.64;97670.00;5022494;28;20041;-55
2021/11/12 10:26:00;;;;;;;44.53;17.65;;;;;;;1.38;84.43;97674.81;5020541;28;20061;-56
2021/11/12 10:28:38;;;;;;;37.13;20.85;;;;;;;1.33;86.32;97674.56;5016498;28;20448;-55
2021/11/12 10:31:17;;;;;;;36.55;19.90;;;;;;;1.44;85.63;97675.94;5012989;28;20575;-54
2021/11/12 10:33:52;;;;;;;38.50;20.42;;;;;;;1.56;85.59;97668.25;5023285;28;20045;-57
2021/11/12 10:36:20;;;;;;;39.78;20.80;;;;;;;1.61;85.21;97668.53;5022769;28;20041;-55
2021/11/12 10:38:49;;;;;;;53.92;22.50;;;;;;;1.01;88.10;97665.88;5025237;28;20052;-54
2021/11/12 10:41:23;;;;;;;44.72;21.70;;;;;;;1.40;86.44;97654.09;5024678;28;20129;-55
2021/11/12 10:43:51;;;;;;;31.98;19.42;;;;;;;1.67;85.91;97645.59;5011443;28;20045;-56
2021/11/12 10:46:34;;;;;;;34.10;21.42;;;;;;;1.65;86.20;97651.13;5005719;28;20042;-52
2021/11/12 10:49:24;;;;;;;42.78;20.15;;;;;;;1.64;85.96;97640.63;5005533;28;20042;-54
2021/11/12 10:51:57;;;;;;;40.13;20.20;;;;;;;1.47;87.20;97626.69;5016177;28;20053;-55
2021/11/12 10:54:50;;;;;;;35.50;20.98;;;;;;;1.83;85.44;97622.38;5025472;28;20099;-52
2021/11/12 10:57:17;;;;;;;38.70;20.58;;;;;;;1.84;85.45;97616.81;5025090;28;20042;-55
2021/11/12 11:00:07;;;;;;;38.85;20.67;;;;;;;2.02;85.55;97613.72;5023152;28;20049;-56
2021/11/12 11:02:52;;;;;;;44.95;22.35;;;;;;;1.92;86.63;97623.88;5017243;28;20601;-55
2021/11/12 11:05:28;;;;;;;36.35;19.70;;;;;;;2.35;84.55;97615.03;5025576;28;20734;-53
2021/11/12 11:08:00;;;;;;;44.80;22.02;;;;;;;2.21;84.09;97608.72;5024974;28;20041;-56
2021/11/12 11:10:29;;;;;;;32.97;19.45;;;;;;;2.34;83.81;97616.88;5021649;28;20048;-57
2021/11/12 11:13:01;;;;;;;38.53;19.23;;;;;;;2.21;83.42;97620.25;5018341;28;20041;-52
2021/11/12 11:15:30;;;;;;;;;;;;;;;2.24;83.77;97620.91;5011789;28;20060;-57
2021/11/12 11:18:32;;;;;;;33.45;18.48;;;;;;;2.29;83.78;97627.31;5005242;28;19925;-51
2021/11/12 11:21:07;;;;;;;34.05;19.65;;;;;;;2.37;83.04;97626.34;5007714;28;20054;-55
2021/11/12 11:23:49;;;;;;;32.25;19.55;;;;;;;2.47;83.53;97615.34;5025328;28;20060;-55
2021/11/12 11:26:21;;;;;;;31.23;18.55;;;;;;;2.67;84.16;97609.28;5019201;28;20500;-56
2021/11/12 11:28:50;;;;;;;33.80;21.23;;;;;;;2.97;82.07;97601.88;5024372;28;20048;-53
2021/11/12 11:31:17;;;;;;;32.80;19.63;;;;;;;3.36;81.23;97593.41;5024073;28;20436;-57
2021/11/12 11:33:47;;;;;;;31.73;18.70;;;;;;;3.52;80.92;97600.28;5024353;28;20049;-55
2021/11/12 11:36:16;;;;;;;31.67;19.08;;;;;;;3.56;79.69;97593.47;5025446;28;20659;-56
2021/11/12 11:38:43;;;;;;;29.15;18.33;;;;;;;3.81;79.18;97594.78;5024394;28;20559;-56
2021/11/12 11:41:16;;;;;;;38.20;21.35;;;;;;;3.55;80.80;97591.00;5024686;28;20517;-56
2021/11/12 11:43:43;;;;;;;34.33;22.05;;;;;;;3.43;81.57;97594.25;5011433;28;20038;-53
2021/11/12 11:46:15;;;;;;;30.50;18.70;;;;;;;3.63;80.23;97580.94;5004857;28;20410;-52
2021/11/12 11:48:44;;;;;;;32.80;20.15;;;;;;;3.74;79.82;97576.03;5005039;28;20129;-57
2021/11/12 11:51:34;;;;;;;32.95;21.02;;;;;;;3.64;80.28;97576.41;5011836;28;20072;-53
2021/11/12 11:54:10;;;;;;;34.15;21.95;;;;;;;3.50;81.14;97573.69;5028580;28;20056;-54
2021/11/12 11:56:57;;;;;;;37.13;20.40;;;;;;;3.93;80.93;97557.50;5028457;28;20045;-56
2021/11/12 11:59:37;;;;;;;38.45;19.08;;;;;;;3.90;79.45;97558.72;5027523;28;20050;-55
2021/11/12 12:02:09;;;;;;;35.83;20.63;;;;;;;3.58;81.42;97555.81;5028256;28;20041;-53
2021/11/12 12:04:41;;;;;;;32.28;20.20;;;;;;;3.59;82.64;97541.38;5027926;28;20053;-55
2021/11/12 12:07:16;;;;;;;32.38;20.98;;;;;;;3.59;82.09;97536.03;5028437;28;20041;-54
2021/11/12 12:09:51;;;;;;;34.45;21.27;;;;;;;3.63;82.12;97553.34;5028014;28;20034;-55
2021/11/12 12:12:29;;;;;;;34.72;21.55;;;;;;;3.78;81.80;97545.13;5027020;28;20052;-58
2021/11/12 12:15:17;;;;;;;44.40;23.52;;;;;;;3.27;83.83;97549.13;5027891;28;20045;-55
2021/11/12 12:17:49;;;;;;;35.00;22.05;;;;;;;3.43;83.97;97553.28;5027332;28;20064;-56
2021/11/12 12:20:54;;;;;;;43.83;22.80;;;;;;;3.60;82.61;97548.38;5027660;28;20045;-56
2021/11/12 13:25:39;;;;;;;40.80;21.88;;;;;;;3.50;84.59;97481.84;5024882;28;20415;-53
2021/11/12 13:28:13;;;;;;;42.83;22.50;;;;;;;3.46;85.78;97480.63;5023650;28;20068;-55
2021/11/12 13:30:46;;;;;;;34.20;21.17;;;;;;;3.52;85.35;97477.13;5023486;28;20037;-58
2021/11/12 13:33:23;;;;;;;37.83;22.33;;;;;;;3.37;85.26;97472.78;5024677;28;20057;-58
2021/11/12 13:35:50;;;;;;;36.25;21.30;;;;;;;3.42;85.60;97476.69;5027025;28;20049;-57
2021/11/12 13:38:17;;;;;;;42.75;23.20;;;;;;;3.36;85.66;97475.66;5026649;28;20048;-53
2021/11/12 13:40:44;;;;;;;34.78;21.27;;;;;;;3.28;86.27;97471.28;5025805;28;20640;-58
2021/11/12 13:43:24;;;;;;;49.17;23.20;;;;;;;3.36;85.92;97470.31;5026628;28;20049;-57
2021/11/12 13:45:58;;;;;;;36.38;21.35;;;;;;;3.48;85.65;97470.50;5026897;28;20048;-56
2021/11/12 13:48:25;;;;;;;39.42;22.08;;;;;;;3.42;85.45;97480.19;5026178;28;20072;-56
2021/11/12 13:50:52;;;;;;;38.20;22.40;;;;;;;3.20;86.02;97487.53;5019167;28;20753;-58
2021/11/12 13:53:19;;;;;;;42.97;23.13;;;;;;;2.99;86.77;97484.78;5021896;28;20060;-56
2021/11/12 13:55:46;;;;;;;40.83;21.63;;;;;;;2.98;87.24;97491.19;5020851;28;20080;-56
2021/11/12 13:58:20;;;;;;;46.28;23.65;;;;;;;2.98;86.97;97501.88;5019639;28;20488;-56
2021/11/12 14:00:48;;;;;;;37.70;22.02;;;;;;;3.09;87.21;97499.63;5020286;28;20037;-56
2021/11/12 14:03:18;;;;;;;63.92;21.58;;;;;;;3.22;85.67;97505.06;5019073;28;20138;-55
2021/11/12 14:05:57;;;;;;;40.30;22.48;;;;;;;3.18;85.47;97498.47;5023738;28;20056;-54
2021/11/12 14:08:34;;;;;;;39.42;19.15;;;;;;;3.05;86.07;97503.75;5017298;28;20057;-57
2021/11/12 14:11:03;;;;;;;37.03;21.35;;;;;;;3.21;85.99;97513.28;5018195;28;20058;-57
2021/11/12 14:13:37;;;;;;;40.00;20.88;;;;;;;2.93;86.29;97512.34;5016245;28;20049;-55
2021/11/12 14:16:14;;;;;;;34.92;21.35;;;;;;;2.90;85.35;97515.41;5022928;28;20777;-58
2021/11/12 14:19:15;;;;;;;48.90;23.10;;;;;;;2.60;87.21;97518.34;5023652;28;20424;-58
2021/11/12 14:24:49;;;;;;;41.88;20.92;;;;;;;2.35;87.90;97510.78;5023308;28;20427;-57
2021/11/12 14:27:28;;;;;;;59.60;22.73;;;;;;;2.03;88.91;97513.84;5021647;28;20049;-57
2021/11/12 14:30:51;;;;;;;55.22;23.52;;;;;;;2.11;88.45;97510.25;5022734;28;20044;-58
2021/11/12 14:38:28;;;;;;;44.63;21.20;;;;;;;2.17;89.38;97513.94;5005804;28;20103;-58
2021/11/12 14:46:34;;;;;;;37.70;19.90;;;;;;;1.73;89.15;97498.00;5025564;28;20045;-57
2021/11/12 14:54:37;;;;;;;43.00;20.17;;;;;;;1.72;88.87;97507.03;5020830;28;20050;-55
2021/11/12 14:57:11;;;;;;;62.30;17.73;;;;;;;1.91;88.09;97508.22;5025429;28;20046;-54
2021/11/12 14:59:40;;;;;;;33.92;19.15;;;;;;;1.88;88.32;97497.91;5024496;28;20658;-50
2021/11/12 15:02:09;;;;;;;37.72;19.27;;;;;;;1.90;87.60;97503.91;5025514;28;20056;-57
2021/11/12 15:04:36;;;;;;;35.83;19.38;;;;;;;2.02;87.96;97495.34;5025313;28;20567;-58
2021/11/12 15:07:04;;;;;;;36.95;19.23;;;;;;;2.06;87.28;97504.63;5025675;28;20056;-60
2021/11/12 15:09:33;;;;;;;56.60;17.35;;;;;;;1.88;87.79;97497.91;5022421;28;20041;-58
2021/11/12 15:12:03;;;;;;;39.20;18.30;;;;;;;1.62;89.42;97502.00;5012938;28;20390;-58
2021/11/12 15:14:33;;;;;;;32.20;18.23;;;;;;;1.63;89.84;97506.34;5011891;28;20524;-58
2021/11/12 15:17:03;;;;;;;;;;;;;;;1.67;89.62;97504.91;5025565;28;20095;-58
2021/11/12 15:19:33;;;;;;;42.08;21.33;;;;;;;1.69;90.45;97502.91;5006304;28;19968;-57
2021/11/12 15:24:36;;;;;;;32.20;18.15;;;;;;;2.02;88.89;97500.69;5024786;28;20056;-58
2021/11/12 15:27:10;;;;;;;35.78;18.25;;;;;;;2.12;87.10;97500.34;5009156;28;20501;-58
2021/11/12 15:29:40;;;;;;;32.10;17.10;;;;;;;1.99;87.66;97501.09;5009686;28;20041;-57
2021/11/12 15:32:32;;;;;;;29.63;16.98;;;;;;;1.85;88.20;97501.00;5016975;28;20116;-57
2021/11/12 15:35:06;;;;;;;33.85;17.95;;;;;;;1.77;87.94;97501.94;5029551;28;20515;-57
2021/11/12 15:40:27;;;;;;;54.63;18.38;;;;;;;1.65;89.10;97506.13;5028637;28;20038;-55
2021/11/12 15:48:10;;;;;;;39.90;17.50;;;;;;;1.58;89.47;97502.59;5028805;28;20390;-55
2021/11/12 15:53:21;;;;;;;49.42;20.95;;;;;;;1.41;89.44;97500.19;5020847;28;20424;-55
2021/11/12 16:11:55;;;;;;;44.95;19.55;;;;;;;1.35;90.21;97509.75;5019464;28;20049;-58
2021/11/12 16:14:28;;;;;;;68.22;21.08;;;;;;;1.34;90.09;97515.28;5020323;28;20114;-58
2021/11/12 16:25:00;;;;;;;75.35;17.20;;;;;;;1.01;89.82;97504.06;5011212;28;20050;-55
2021/11/12 16:27:27;;;;;;;63.55;17.80;;;;;;;0.70;92.14;97494.44;5019182;28;20188;-57
2021/11/12 16:29:55;;;;;;;62.60;20.75;;;;;;;0.88;92.52;97502.06;5024262;28;20084;-55
2021/11/12 16:32:30;;;;;;;50.28;21.73;;;;;;;0.97;92.56;97502.78;5023857;28;20136;-57
2021/11/12 16:34:59;;;;;;;90.13;23.13;;;;;;;0.60;92.21;97500.06;5021380;28;20042;-55
2021/11/12 16:37:28;;;;;;;70.30;22.40;;;;;;;0.72;93.41;97497.75;5021393;28;20060;-55
2021/11/12 16:39:59;;;;;;;74.60;20.85;;;;;;;0.67;92.48;97504.66;5025409;28;20045;-53
2021/11/12 17:01:32;;;;;;;47.30;16.75;;;;;;;0.67;91.72;97502.81;5022082;28;20048;-57
2021/11/12 17:11:47;;;;;;;32.42;16.58;;;;;;;0.46;91.46;97499.06;5021205;28;20034;-57
2021/11/12 17:47:02;;;;;;;29.02;16.98;;;;;;;0.79;89.73;97535.16;4943714;28;20051;-56
2021/11/12 18:06:06;;;;;;;21.20;14.32;;;;;;;0.49;90.12;97530.69;5019571;28;20049;-56
2021/11/12 18:22:10;;;;;;;28.33;15.20;;;;;;;0.16;90.64;97532.81;5024118;28;20728;-51
2021/11/12 21:46:59;;;;;;;26.48;16.77;;;;;;;-1.71;89.88;97385.56;5017935;28;20042;-55
2021/11/12 21:49:26;;;;;;;27.15;16.58;;;;;;;-1.77;89.30;97386.22;5019118;28;20103;-53